createdAt,value
2018-09-18T00:01:05.447Z,89.00
2018-09-18T00:03:34.104Z,89.00
2018-09-18T00:06:02.775Z,89.20
2018-09-18T00:08:31.475Z,89.00
2018-09-18T00:11:00.180Z,89.00
2018-09-18T00:13:28.854Z,88.80
2018-09-18T00:15:57.548Z,88.90
2018-09-18T00:18:26.307Z,90.00
2018-09-18T00:20:54.963Z,88.80
2018-09-18T00:23:23.555Z,88.80
2018-09-18T00:25:52.294Z,88.70
2018-09-18T00:28:20.928Z,88.80
2018-09-18T00:30:49.586Z,88.50
2018-09-18T00:33:18.220Z,88.30
2018-09-18T00:35:46.843Z,88.40
2018-09-18T00:38:15.537Z,88.70
2018-09-18T00:40:44.217Z,88.60
2018-09-18T00:43:12.932Z,88.50
2018-09-18T00:45:41.588Z,89.10
2018-09-18T00:48:10.191Z,88.30
2018-09-18T00:50:38.943Z,88.30
2018-09-18T00:53:07.666Z,88.60
2018-09-18T00:55:36.338Z,88.50
2018-09-18T00:58:05.007Z,88.70
2018-09-18T01:00:33.648Z,88.70
2018-09-18T01:03:02.674Z,88.80
2018-09-18T01:05:31.414Z,88.80
2018-09-18T01:08:00.035Z,89.50
2018-09-18T01:10:28.810Z,88.60
2018-09-18T01:12:57.462Z,88.40
2018-09-18T01:15:26.187Z,88.20
2018-09-18T01:17:54.871Z,88.30
2018-09-18T01:20:23.563Z,88.50
2018-09-18T01:22:52.212Z,88.70
2018-09-18T01:25:20.849Z,88.70
2018-09-18T01:27:49.507Z,89.00
2018-09-18T01:30:18.216Z,88.80
2018-09-18T01:32:46.914Z,88.60
2018-09-18T01:35:15.527Z,88.90
2018-09-18T01:37:44.163Z,89.00
2018-09-18T01:40:12.807Z,89.10
2018-09-18T01:42:41.488Z,89.00
2018-09-18T01:45:10.213Z,89.30
2018-09-18T01:47:38.835Z,89.10
2018-09-18T01:50:07.567Z,89.30
2018-09-18T01:52:36.265Z,89.60
2018-09-18T01:55:05.006Z,89.50
2018-09-18T01:57:33.720Z,89.90
2018-09-18T02:00:02.651Z,90.20
2018-09-18T02:02:31.277Z,90.00
2018-09-18T02:04:59.887Z,90.20
2018-09-18T02:07:28.831Z,90.10
2018-09-18T02:09:57.464Z,90.00
2018-09-18T02:12:26.063Z,90.10
2018-09-18T02:14:54.727Z,90.10
2018-09-18T02:17:23.375Z,90.20
2018-09-18T02:19:52.014Z,90.20
2018-09-18T02:22:20.659Z,90.10
2018-09-18T02:24:49.327Z,90.00
2018-09-18T02:27:17.968Z,90.00
2018-09-18T02:29:46.691Z,90.00
2018-09-18T02:32:15.335Z,90.00
2018-09-18T02:34:43.950Z,90.10
2018-09-18T02:37:12.599Z,90.20
2018-09-18T02:39:41.195Z,90.00
2018-09-18T02:42:09.859Z,90.30
2018-09-18T02:44:38.486Z,90.10
2018-09-18T02:47:07.094Z,90.20
2018-09-18T02:49:35.842Z,90.30
2018-09-18T02:52:04.479Z,90.30
2018-09-18T02:54:33.152Z,90.50
2018-09-18T02:57:02.116Z,90.40
2018-09-18T02:59:30.745Z,90.70
2018-09-18T03:01:59.374Z,90.80
2018-09-18T03:04:28.069Z,90.50
2018-09-18T03:06:56.695Z,90.50
2018-09-18T03:09:25.346Z,90.50
2018-09-18T03:11:53.967Z,90.50
2018-09-18T03:14:22.654Z,90.40
2018-09-18T03:16:51.324Z,90.50
2018-09-18T03:19:20.017Z,90.60
2018-09-18T03:21:48.915Z,90.60
2018-09-18T03:24:17.520Z,90.90
2018-09-18T03:26:46.139Z,90.90
2018-09-18T03:29:14.810Z,90.80
2018-09-18T03:31:43.536Z,90.70
2018-09-18T03:34:12.167Z,90.80
2018-09-18T03:36:40.797Z,90.80
2018-09-18T03:39:09.566Z,90.90
2018-09-18T03:41:38.228Z,90.90
2018-09-18T03:44:06.893Z,91.00
2018-09-18T03:46:35.536Z,91.00
2018-09-18T03:49:04.195Z,90.90
2018-09-18T03:51:32.843Z,90.80
2018-09-18T03:54:01.519Z,90.80
2018-09-18T03:56:30.301Z,90.90
2018-09-18T03:58:58.948Z,90.70
2018-09-18T04:01:27.579Z,90.80
2018-09-18T04:03:56.243Z,90.80
2018-09-18T04:06:24.991Z,91.00
2018-09-18T04:08:53.639Z,91.30
2018-09-18T04:11:22.259Z,91.30
2018-09-18T04:13:51.235Z,91.20
2018-09-18T04:16:19.978Z,91.30
2018-09-18T04:18:48.615Z,91.30
2018-09-18T04:21:17.325Z,91.30
2018-09-18T04:23:46.044Z,91.30
2018-09-18T04:26:14.682Z,91.20
2018-09-18T04:28:43.334Z,91.30
2018-09-18T04:31:12.017Z,91.20
2018-09-18T04:33:40.674Z,91.20
2018-09-18T04:36:09.287Z,91.00
2018-09-18T04:38:37.932Z,91.00
2018-09-18T04:41:06.910Z,90.90
2018-09-18T04:43:35.503Z,90.90
2018-09-18T04:46:04.142Z,91.10
2018-09-18T04:48:32.805Z,90.90
2018-09-18T04:51:01.466Z,91.10
2018-09-18T04:53:30.135Z,91.10
2018-09-18T04:55:58.795Z,91.10
2018-09-18T04:58:27.443Z,91.30
2018-09-18T05:00:56.063Z,91.10
2018-09-18T05:03:24.726Z,91.50
2018-09-18T05:05:53.466Z,91.80
2018-09-18T05:08:22.132Z,91.40
2018-09-18T05:10:50.816Z,91.50
2018-09-18T05:13:19.467Z,91.50
2018-09-18T05:15:48.066Z,91.50
2018-09-18T05:18:16.733Z,91.40
2018-09-18T05:20:45.470Z,91.40
2018-09-18T05:23:14.171Z,91.50
2018-09-18T05:25:42.827Z,91.40
2018-09-18T05:28:11.592Z,91.30
2018-09-18T05:30:40.270Z,91.10
2018-09-18T05:33:08.883Z,91.00
2018-09-18T05:35:37.532Z,90.90
2018-09-18T05:38:06.235Z,90.90
2018-09-18T05:40:34.895Z,90.80
2018-09-18T05:43:03.520Z,90.60
2018-09-18T05:45:32.152Z,90.60
2018-09-18T05:48:00.808Z,90.90
2018-09-18T05:50:29.431Z,91.30
2018-09-18T05:52:58.046Z,91.10
2018-09-18T05:55:26.716Z,91.10
2018-09-18T05:57:55.331Z,90.80
2018-09-18T06:00:24.106Z,90.80
2018-09-18T06:02:52.750Z,91.10
2018-09-18T06:05:21.351Z,90.80
2018-09-18T06:07:50.363Z,90.80
2018-09-18T06:10:18.991Z,90.80
2018-09-18T06:12:47.647Z,90.60
2018-09-18T06:15:16.323Z,90.40
2018-09-18T06:17:44.934Z,90.40
2018-09-18T06:20:13.574Z,90.00
2018-09-18T06:22:42.215Z,90.10
2018-09-18T06:25:10.906Z,88.80
2018-09-18T06:27:39.563Z,89.20
2018-09-18T06:30:08.411Z,88.80
2018-09-18T06:32:37.006Z,87.70
2018-09-18T06:35:05.746Z,86.60
2018-09-18T06:37:34.404Z,86.10
2018-09-18T06:40:03.058Z,86.10
2018-09-18T06:42:31.700Z,85.80
2018-09-18T06:45:00.314Z,85.90
2018-09-18T06:47:28.948Z,84.20
2018-09-18T06:49:57.563Z,84.60
2018-09-18T06:52:26.202Z,82.70
2018-09-18T06:54:54.819Z,82.60
2018-09-18T06:57:23.547Z,83.30
2018-09-18T06:59:52.198Z,82.30
2018-09-18T07:02:20.860Z,81.60
2018-09-18T07:04:49.505Z,81.70
2018-09-18T07:07:18.127Z,80.70
2018-09-18T07:09:47.124Z,80.60
2018-09-18T07:12:15.767Z,80.70
2018-09-18T07:14:44.407Z,80.10
2018-09-18T07:17:13.078Z,80.10
2018-09-18T07:19:41.771Z,79.20
2018-09-18T07:22:10.451Z,79.20
2018-09-18T07:24:39.131Z,79.70
2018-09-18T07:27:07.796Z,79.90
2018-09-18T07:29:36.475Z,79.60
2018-09-18T07:32:05.077Z,79.40
2018-09-18T07:34:33.724Z,78.40
2018-09-18T07:37:02.380Z,78.40
2018-09-18T07:39:31.031Z,78.90
2018-09-18T07:41:59.682Z,78.30
2018-09-18T07:44:28.314Z,79.40
2018-09-18T07:46:56.950Z,80.60
2018-09-18T07:49:25.634Z,77.80
2018-09-18T07:51:54.231Z,75.10
2018-09-18T07:54:22.878Z,75.70
2018-09-18T07:56:51.510Z,75.60
2018-09-18T07:59:20.208Z,72.90
2018-09-18T08:01:48.902Z,71.40
2018-09-18T08:04:17.564Z,73.40
2018-09-18T08:06:46.443Z,72.40
2018-09-18T08:09:15.139Z,68.00
2018-09-18T08:11:43.779Z,69.40
2018-09-18T08:14:12.423Z,69.30
2018-09-18T08:16:41.427Z,69.60
2018-09-18T08:19:10.113Z,70.00
2018-09-18T08:21:38.729Z,72.10
2018-09-18T08:24:07.375Z,70.30
2018-09-18T08:26:36.083Z,69.00
2018-09-18T08:29:04.816Z,66.90
2018-09-18T08:31:33.454Z,67.60
2018-09-18T08:34:02.115Z,64.80
2018-09-18T08:36:31.115Z,62.70
2018-09-18T08:38:59.731Z,63.30
2018-09-18T08:41:28.380Z,63.70
2018-09-18T08:43:57.059Z,64.50
2018-09-18T08:46:25.707Z,62.60
2018-09-18T08:48:55.382Z,61.30
2018-09-18T08:51:24.067Z,59.80
2018-09-18T08:53:52.987Z,58.90
2018-09-18T08:56:21.635Z,57.30
2018-09-18T08:58:50.734Z,59.70
2018-09-18T09:01:19.363Z,57.70
2018-09-18T09:03:48.138Z,58.10
2018-09-18T09:06:16.705Z,57.90
2018-09-18T09:08:45.430Z,55.60
2018-09-18T09:11:14.069Z,55.40
2018-09-18T09:13:42.727Z,54.60
2018-09-18T09:16:11.412Z,54.20
2018-09-18T09:18:40.082Z,54.80
2018-09-18T09:21:08.948Z,54.70
2018-09-18T09:23:37.482Z,53.50
2018-09-18T09:26:06.630Z,54.00
2018-09-18T09:28:35.306Z,53.20
2018-09-18T09:31:04.016Z,53.50
2018-09-18T09:33:32.721Z,54.80
2018-09-18T09:36:01.350Z,54.00
2018-09-18T09:38:30.008Z,54.40
2018-09-18T09:40:58.634Z,54.80
2018-09-18T09:43:27.285Z,55.20
2018-09-18T09:45:55.924Z,54.80
2018-09-18T09:48:24.559Z,53.00
2018-09-18T09:50:53.157Z,53.80
2018-09-18T09:53:22.046Z,52.80
2018-09-18T09:55:50.659Z,54.00
2018-09-18T09:58:19.279Z,55.00
2018-09-18T10:00:53.192Z,54.70
2018-09-18T10:03:21.791Z,53.40
2018-09-18T10:05:50.416Z,53.00
2018-09-18T10:08:19.035Z,51.40
2018-09-18T10:10:47.757Z,52.00
2018-09-18T10:13:16.386Z,52.20
2018-09-18T10:15:45.038Z,52.60
2018-09-18T10:18:13.697Z,52.90
2018-09-18T10:20:42.349Z,52.70
2018-09-18T10:23:11.005Z,53.70
2018-09-18T10:25:39.695Z,52.60
2018-09-18T10:28:08.363Z,51.90
2018-09-18T10:30:37.008Z,51.70
2018-09-18T10:33:05.691Z,52.00
2018-09-18T10:35:34.351Z,52.40
2018-09-18T10:38:02.965Z,52.20
2018-09-18T10:40:31.640Z,51.30
2018-09-18T10:43:00.345Z,51.60
2018-09-18T10:45:28.930Z,52.60
2018-09-18T10:47:57.575Z,53.50
2018-09-18T10:50:26.201Z,51.90
2018-09-18T10:52:54.864Z,52.40
2018-09-18T10:55:23.545Z,52.40
2018-09-18T10:57:52.171Z,52.00
2018-09-18T11:00:20.844Z,52.70
2018-09-18T11:02:49.513Z,51.90
2018-09-18T11:05:18.165Z,52.20
2018-09-18T11:07:46.908Z,52.80
2018-09-18T11:10:15.450Z,52.10
2018-09-18T11:12:44.091Z,52.40
2018-09-18T11:15:12.773Z,51.50
2018-09-18T11:17:41.426Z,51.80
2018-09-18T11:20:10.087Z,51.40
2018-09-18T11:22:38.661Z,52.40
2018-09-18T11:25:07.427Z,51.10
2018-09-18T11:27:36.070Z,51.30
2018-09-18T11:30:04.851Z,50.60
2018-09-18T11:32:33.521Z,51.80
2018-09-18T11:35:02.210Z,51.00
2018-09-18T11:37:30.821Z,50.80
2018-09-18T11:39:59.447Z,50.70
2018-09-18T11:42:28.111Z,50.60
2018-09-18T11:44:56.767Z,50.30
2018-09-18T11:47:25.425Z,50.00
2018-09-18T11:49:54.054Z,50.00
2018-09-18T11:52:22.663Z,50.40
2018-09-18T11:54:51.335Z,50.20
2018-09-18T11:57:19.981Z,48.80
2018-09-18T11:59:48.671Z,49.80
2018-09-18T12:02:17.346Z,49.70
2018-09-18T12:04:46.124Z,49.40
2018-09-18T12:07:14.704Z,48.80
2018-09-18T12:09:43.563Z,48.40
2018-09-18T12:12:12.211Z,48.00
2018-09-18T12:14:40.818Z,49.40
2018-09-18T12:17:09.452Z,49.00
2018-09-18T12:19:38.078Z,48.80
2018-09-18T12:22:06.872Z,47.90
2018-09-18T12:24:35.452Z,48.20
2018-09-18T12:27:04.175Z,48.20
2018-09-18T12:29:32.833Z,48.30
2018-09-18T12:32:01.405Z,47.50
2018-09-18T12:34:29.971Z,47.10
2018-09-18T12:36:58.589Z,46.90
2018-09-18T12:39:27.239Z,43.40
2018-09-18T12:41:55.971Z,42.10
2018-09-18T12:44:24.547Z,41.40
2018-09-18T12:46:53.254Z,41.30
2018-09-18T12:49:22.088Z,42.20
2018-09-18T12:51:50.619Z,42.70
2018-09-18T12:54:19.247Z,42.00
2018-09-18T12:56:47.980Z,41.80
2018-09-18T12:59:16.654Z,42.30
2018-09-18T13:01:45.347Z,41.70
2018-09-18T13:04:13.964Z,41.40
2018-09-18T13:06:42.589Z,41.40
2018-09-18T13:09:12.764Z,41.60
2018-09-18T13:11:41.459Z,40.60
2018-09-18T13:14:10.249Z,41.30
2018-09-18T13:16:38.768Z,40.20
2018-09-18T13:19:07.403Z,41.60
2018-09-18T13:21:36.052Z,41.70
2018-09-18T13:24:04.731Z,41.10
2018-09-18T13:26:33.344Z,40.90
2018-09-18T13:29:01.964Z,38.70
2018-09-18T13:31:30.680Z,39.50
2018-09-18T13:33:59.270Z,38.10
2018-09-18T13:36:27.967Z,39.00
2018-09-18T13:38:56.647Z,38.50
2018-09-18T13:41:25.344Z,39.10
2018-09-18T13:43:53.944Z,39.60
2018-09-18T13:46:22.625Z,40.00
2018-09-18T13:48:51.219Z,40.10
2018-09-18T13:51:19.875Z,40.40
2018-09-18T13:53:48.512Z,40.90
2018-09-18T13:56:17.152Z,39.10
2018-09-18T13:58:45.871Z,39.40
2018-09-18T14:01:14.596Z,40.10
2018-09-18T14:03:43.216Z,40.70
2018-09-18T14:06:11.860Z,39.50
2018-09-18T14:08:40.488Z,39.00
2018-09-18T14:11:09.375Z,40.10
2018-09-18T14:13:37.954Z,40.50
2018-09-18T14:16:06.591Z,40.30
2018-09-18T14:18:35.263Z,39.70
2018-09-18T14:21:03.845Z,40.20
2018-09-18T14:23:32.503Z,39.20
2018-09-18T14:26:01.143Z,39.50
2018-09-18T14:28:29.896Z,40.50
2018-09-18T14:30:58.574Z,39.50
2018-09-18T14:33:27.247Z,39.20
2018-09-18T14:35:55.847Z,39.80
2018-09-18T14:38:24.515Z,36.60
2018-09-18T14:40:53.102Z,35.80
2018-09-18T14:43:21.683Z,36.50
2018-09-18T14:45:50.323Z,35.70
2018-09-18T14:48:19.191Z,36.60
2018-09-18T14:50:51.223Z,37.60
2018-09-18T14:53:19.921Z,37.30
2018-09-18T14:55:48.680Z,36.80
2018-09-18T14:58:17.327Z,36.40
2018-09-18T15:00:45.927Z,36.90
2018-09-18T15:03:14.560Z,37.30
2018-09-18T15:05:43.183Z,37.10
2018-09-18T15:08:11.800Z,37.70
2018-09-18T15:10:40.459Z,37.90
2018-09-18T15:13:09.190Z,38.30
2018-09-18T15:15:37.973Z,38.20
2018-09-18T15:18:06.530Z,37.40
2018-09-18T15:20:35.172Z,37.90
2018-09-18T15:23:03.803Z,38.00
2018-09-18T15:25:32.472Z,37.60
2018-09-18T15:28:01.124Z,37.30
2018-09-18T15:30:29.758Z,37.50
2018-09-18T15:32:58.375Z,38.00
2018-09-18T15:35:26.955Z,39.00
2018-09-18T15:37:55.660Z,39.80
2018-09-18T15:40:24.280Z,38.70
2018-09-18T15:42:52.917Z,38.60
2018-09-18T15:45:21.548Z,38.80
2018-09-18T15:47:50.199Z,38.90
2018-09-18T15:50:18.888Z,39.60
2018-09-18T15:52:47.548Z,39.90
2018-09-18T15:55:16.243Z,40.70
2018-09-18T15:57:44.787Z,41.60
2018-09-18T16:00:13.534Z,42.40
2018-09-18T16:02:42.195Z,43.20
2018-09-18T16:05:10.871Z,44.20
2018-09-18T16:07:39.511Z,44.00
2018-09-18T16:10:08.245Z,44.40
2018-09-18T16:12:36.987Z,44.90
2018-09-18T16:15:05.790Z,44.70
2018-09-18T16:17:34.623Z,45.10
2018-09-18T16:20:03.313Z,45.00
2018-09-18T16:22:31.949Z,44.30
2018-09-18T16:25:00.635Z,45.00
2018-09-18T16:27:29.273Z,44.70
2018-09-18T16:29:57.964Z,45.00
2018-09-18T16:32:26.588Z,45.80
2018-09-18T16:34:55.238Z,45.90
2018-09-18T16:37:23.900Z,45.70
2018-09-18T16:39:52.530Z,46.30
2018-09-18T16:42:21.173Z,46.10
2018-09-18T16:44:49.789Z,46.20
2018-09-18T16:47:18.460Z,46.20
2018-09-18T16:49:47.068Z,46.40
2018-09-18T16:52:15.723Z,46.60
2018-09-18T16:54:44.509Z,46.40
2018-09-18T16:57:13.107Z,45.60
2018-09-18T16:59:41.704Z,45.80
2018-09-18T17:02:10.449Z,45.80
2018-09-18T17:04:39.104Z,45.70
2018-09-18T17:07:07.714Z,45.90
2018-09-18T17:09:36.565Z,45.40
2018-09-18T17:12:05.190Z,45.40
2018-09-18T17:14:33.809Z,45.50
2018-09-18T17:17:02.777Z,45.40
2018-09-18T17:19:31.436Z,45.70
2018-09-18T17:22:00.043Z,46.00
2018-09-18T17:24:28.737Z,46.40
2018-09-18T17:26:57.460Z,47.70
2018-09-18T17:29:26.114Z,46.80
2018-09-18T17:31:54.768Z,47.50
2018-09-18T17:34:23.453Z,48.10
2018-09-18T17:36:52.336Z,48.20
2018-09-18T17:39:21.002Z,48.90
2018-09-18T17:41:49.650Z,49.50
2018-09-18T17:44:18.373Z,49.60
2018-09-18T17:46:47.107Z,50.00
2018-09-18T17:49:15.739Z,50.70
2018-09-18T17:51:44.409Z,51.50
2018-09-18T17:54:13.095Z,51.50
2018-09-18T17:56:41.718Z,52.20
2018-09-18T17:59:10.424Z,52.40
2018-09-18T18:01:39.072Z,52.70
2018-09-18T18:04:13.326Z,53.40
2018-09-18T18:06:42.185Z,53.90
2018-09-18T18:09:11.295Z,54.00
2018-09-18T18:11:40.229Z,54.50
2018-09-18T18:14:09.066Z,54.90
2018-09-18T18:16:37.647Z,55.20
2018-09-18T18:19:06.354Z,55.80
2018-09-18T18:21:35.006Z,56.30
2018-09-18T18:24:03.659Z,56.40
2018-09-18T18:26:32.288Z,56.80
2018-09-18T18:29:01.116Z,57.10
2018-09-18T18:31:32.857Z,57.60
2018-09-18T18:34:01.519Z,57.60
2018-09-18T18:36:30.973Z,58.20
2018-09-18T18:38:59.938Z,58.40
2018-09-18T18:41:28.643Z,59.60
2018-09-18T18:44:02.536Z,60.00
2018-09-18T18:46:31.327Z,59.80
2018-09-18T18:48:59.926Z,60.90
2018-09-18T18:51:28.550Z,61.10
2018-09-18T18:53:57.248Z,61.30
2018-09-18T18:56:25.873Z,61.70
2018-09-18T18:58:54.554Z,61.90
2018-09-18T19:01:23.171Z,61.80
2018-09-18T19:03:52.091Z,62.10
2018-09-18T19:06:20.862Z,62.40
2018-09-18T19:15:00.174Z,64.20
2018-09-18T19:17:29.731Z,64.20
2018-09-18T19:19:58.471Z,64.90
2018-09-18T19:22:27.100Z,65.10
2018-09-18T19:24:55.743Z,64.90
2018-09-18T19:27:24.485Z,68.00
2018-09-18T19:29:53.132Z,66.20
2018-09-18T19:32:26.290Z,67.10
2018-09-18T19:35:00.340Z,67.30
2018-09-18T19:37:29.292Z,68.80
2018-09-18T19:39:57.956Z,67.60
2018-09-18T19:42:26.625Z,69.40
2018-09-18T19:44:55.339Z,68.80
2018-09-18T19:47:23.960Z,69.80
2018-09-18T19:49:52.628Z,69.30
2018-09-18T19:52:21.342Z,69.40
2018-09-18T19:54:50.049Z,69.60
2018-09-18T19:57:18.759Z,70.00
2018-09-18T19:59:47.512Z,69.00
2018-09-18T20:02:16.142Z,68.80
2018-09-18T20:04:44.849Z,68.90
2018-09-18T20:07:13.504Z,69.10
2018-09-18T20:09:42.163Z,69.90
2018-09-18T20:12:11.120Z,72.90
2018-09-18T20:14:39.817Z,70.70
2018-09-18T20:17:08.499Z,71.40
2018-09-18T20:19:37.140Z,73.20
2018-09-18T20:22:06.930Z,74.00
2018-09-18T20:24:35.585Z,73.00
2018-09-18T20:27:04.234Z,73.20
2018-09-18T20:29:32.957Z,72.10
2018-09-18T20:32:01.588Z,72.00
2018-09-18T20:34:30.305Z,71.90
2018-09-18T20:36:58.934Z,71.70
2018-09-18T20:39:27.755Z,71.50
2018-09-18T20:41:56.414Z,71.20
2018-09-18T20:44:25.170Z,71.50
2018-09-18T20:46:53.772Z,71.60
2018-09-18T20:49:22.750Z,74.00
2018-09-18T20:51:51.430Z,74.20
2018-09-18T20:54:20.040Z,74.60
2018-09-18T20:56:48.815Z,73.10
2018-09-18T20:59:17.441Z,72.90
2018-09-18T21:01:46.389Z,73.70
2018-09-18T21:04:15.087Z,72.90
2018-09-18T21:06:43.651Z,74.60
2018-09-18T21:09:12.256Z,74.50
2018-09-18T21:11:40.991Z,74.40
2018-09-18T21:14:10.027Z,73.50
2018-09-18T21:16:38.670Z,73.20
2018-09-18T21:19:07.450Z,73.90
2018-09-18T21:21:36.045Z,73.70
2018-09-18T21:24:04.706Z,74.00
2018-09-18T21:26:33.343Z,74.00
2018-09-18T21:29:01.969Z,75.90
2018-09-18T21:31:30.638Z,75.50
2018-09-18T21:33:59.251Z,76.60
2018-09-18T21:36:27.879Z,76.90
2018-09-18T21:38:56.793Z,76.30
2018-09-18T21:41:25.411Z,77.10
2018-09-18T21:43:54.027Z,76.10
2018-09-18T21:46:23.546Z,75.70
2018-09-18T21:48:52.158Z,76.60
2018-09-18T21:51:20.795Z,77.90
2018-09-18T21:53:49.439Z,76.40
2018-09-18T21:56:18.031Z,76.30
2018-09-18T21:58:46.676Z,76.60
2018-09-18T22:01:15.289Z,78.00
2018-09-18T22:03:43.904Z,78.20
2018-09-18T22:06:12.547Z,79.00
2018-09-18T22:08:41.146Z,79.40
2018-09-18T22:11:09.788Z,78.20
2018-09-18T22:13:38.425Z,77.90
2018-09-18T22:16:07.103Z,77.80
2018-09-18T22:18:35.688Z,78.20
2018-09-18T22:21:04.343Z,78.50
2018-09-18T22:23:33.010Z,77.80
2018-09-18T22:26:01.647Z,77.50
2018-09-18T22:28:30.314Z,77.10
2018-09-18T22:30:58.935Z,78.10
2018-09-18T22:33:27.519Z,77.30
2018-09-18T22:35:56.175Z,77.10
2018-09-18T22:38:24.779Z,76.90
2018-09-18T22:40:53.364Z,77.10
2018-09-18T22:43:28.395Z,76.80
2018-09-18T22:45:57.030Z,77.00
2018-09-18T22:48:25.649Z,77.10
2018-09-18T22:50:54.304Z,76.80
2018-09-18T22:53:22.903Z,77.10
2018-09-18T22:55:51.516Z,77.40
2018-09-18T22:58:20.139Z,77.90
2018-09-18T23:00:48.767Z,79.40
2018-09-18T23:03:17.397Z,80.20
2018-09-18T23:05:46.012Z,80.60
2018-09-18T23:08:14.675Z,81.00
2018-09-18T23:10:43.277Z,81.70
2018-09-18T23:13:11.860Z,82.20
2018-09-18T23:15:40.471Z,82.60
2018-09-18T23:18:09.078Z,83.10
2018-09-18T23:20:37.712Z,83.30
2018-09-18T23:23:06.314Z,83.60
2018-09-18T23:25:34.940Z,83.80
2018-09-18T23:28:03.572Z,83.80
2018-09-18T23:30:32.161Z,84.30
2018-09-18T23:33:00.783Z,84.80
2018-09-18T23:35:29.627Z,84.90
2018-09-18T23:37:58.258Z,85.40
2018-09-18T23:40:26.854Z,85.40
2018-09-18T23:42:55.484Z,85.30
2018-09-18T23:45:24.111Z,85.30
2018-09-18T23:47:52.710Z,84.30
2018-09-18T23:50:21.339Z,84.30
2018-09-18T23:52:50.005Z,84.00
2018-09-18T23:55:18.639Z,83.50
2018-09-18T23:57:47.194Z,83.00
